createdAt,value
2024-03-26T00:00:49.469Z,5.1313
2024-03-26T00:01:52.273Z,5.0368
2024-03-26T00:02:55.032Z,5.0681
2024-03-26T00:03:57.708Z,5.0246
2024-03-26T00:05:00.398Z,5.0145
2024-03-26T00:06:03.123Z,5.1366
2024-03-26T00:07:05.869Z,5.0599
2024-03-26T00:08:08.534Z,5.2554
2024-03-26T00:09:11.257Z,5.1412
2024-03-26T00:10:14.013Z,5.1034
2024-03-26T00:11:16.736Z,5.2117
2024-03-26T00:12:19.524Z,5.1657
2024-03-26T00:13:22.184Z,5.0624
2024-03-26T00:14:24.953Z,5.0584
2024-03-26T00:15:27.618Z,5.0466
2024-03-26T00:16:30.335Z,5.0722
2024-03-26T00:17:33.017Z,4.9589
2024-03-26T00:18:35.763Z,5.0758
2024-03-26T00:19:38.506Z,5.1921
2024-03-26T00:20:41.184Z,5.0672
2024-03-26T00:21:43.962Z,4.9670
2024-03-26T00:22:46.659Z,4.9472
2024-03-26T00:23:49.346Z,4.8838
2024-03-26T00:24:52.026Z,4.8840
2024-03-26T00:25:54.747Z,5.0185
2024-03-26T00:26:57.562Z,5.0457
2024-03-26T00:28:00.280Z,4.9869
2024-03-26T00:29:02.942Z,4.9567
2024-03-26T00:30:05.702Z,4.9780
2024-03-26T00:31:08.435Z,4.8183
2024-03-26T00:32:11.477Z,4.8178
2024-03-26T00:33:14.223Z,4.7905
2024-03-26T00:34:16.889Z,4.8475
2024-03-26T00:35:19.627Z,4.8325
2024-03-26T00:36:22.457Z,4.7631
2024-03-26T00:37:25.150Z,4.7911
2024-03-26T00:38:27.893Z,4.7778
2024-03-26T00:39:30.629Z,4.7985
2024-03-26T00:40:33.312Z,4.9049
2024-03-26T00:41:36.004Z,4.8755
2024-03-26T00:42:38.651Z,4.8234
2024-03-26T00:43:41.388Z,4.8002
2024-03-26T00:44:44.097Z,4.8957
2024-03-26T00:45:46.820Z,4.8687
2024-03-26T00:46:49.503Z,4.8024
2024-03-26T00:47:52.264Z,4.8064
2024-03-26T00:48:54.941Z,4.7994
2024-03-26T00:49:57.698Z,4.8622
2024-03-26T00:51:00.417Z,4.7292
2024-03-26T00:52:03.177Z,4.6503
2024-03-26T00:53:05.867Z,4.5724
2024-03-26T00:54:08.576Z,4.4586
2024-03-26T00:55:11.242Z,4.3444
2024-03-26T00:56:14.017Z,4.4934
2024-03-26T00:57:16.720Z,4.5668
2024-03-26T00:58:19.458Z,4.4785
2024-03-26T00:59:22.161Z,4.6656
2024-03-26T01:00:24.840Z,4.8949
2024-03-26T01:01:27.531Z,4.8872
2024-03-26T01:02:30.385Z,4.7390
2024-03-26T01:03:33.051Z,4.5128
2024-03-26T01:04:35.776Z,4.4092
2024-03-26T01:05:38.445Z,4.4607
2024-03-26T01:06:41.217Z,4.4750
2024-03-26T01:07:43.906Z,4.5066
2024-03-26T01:08:46.589Z,4.3897
2024-03-26T01:09:49.304Z,4.4761
2024-03-26T01:10:52.176Z,4.6654
2024-03-26T01:11:54.871Z,4.4996
2024-03-26T01:12:57.590Z,4.3005
2024-03-26T01:14:00.252Z,4.3667
2024-03-26T01:15:03.014Z,4.2742
2024-03-26T01:16:05.702Z,4.2888
2024-03-26T01:17:08.445Z,4.3413
2024-03-26T01:18:11.078Z,4.3523
2024-03-26T01:19:13.916Z,4.2931
2024-03-26T01:20:16.891Z,4.1944
2024-03-26T01:21:22.866Z,4.2866
2024-03-26T01:22:22.784Z,4.4089
2024-03-26T01:23:25.440Z,4.4207
2024-03-26T01:24:28.185Z,4.2679
2024-03-26T01:25:31.077Z,4.3558
2024-03-26T01:26:33.858Z,4.5181
2024-03-26T01:27:36.586Z,4.5573
2024-03-26T01:28:39.300Z,4.6687
2024-03-26T01:29:41.969Z,4.5677
2024-03-26T01:30:44.721Z,4.5917
2024-03-26T01:31:47.466Z,4.5941
2024-03-26T01:32:50.217Z,4.6496
2024-03-26T01:33:52.905Z,4.4153
2024-03-26T01:34:55.918Z,4.4445
2024-03-26T01:35:58.670Z,4.5502
2024-03-26T01:37:01.383Z,4.5911
2024-03-26T01:38:04.019Z,4.4308
2024-03-26T01:39:06.794Z,4.3443
2024-03-26T01:40:09.544Z,4.3144
2024-03-26T01:41:12.246Z,4.2932
2024-03-26T01:42:14.984Z,4.3364
2024-03-26T01:43:17.668Z,4.4177
2024-03-26T01:44:20.430Z,4.4201
2024-03-26T01:45:23.137Z,4.3428
2024-03-26T01:46:25.857Z,4.3152
2024-03-26T01:47:28.535Z,4.4735
2024-03-26T01:48:31.309Z,4.4186
2024-03-26T01:49:34.017Z,4.4572
2024-03-26T01:50:36.789Z,4.3908
2024-03-26T01:51:39.522Z,4.3581
2024-03-26T01:52:42.197Z,4.2504
2024-03-26T01:53:44.963Z,4.2861
2024-03-26T01:54:47.698Z,4.3061
2024-03-26T01:55:50.365Z,4.2978
2024-03-26T01:56:53.063Z,4.2094
2024-03-26T01:57:55.732Z,4.1717
2024-03-26T01:58:58.429Z,4.1907
2024-03-26T02:00:01.145Z,4.1790
2024-03-26T02:01:03.941Z,4.0909
2024-03-26T02:02:06.651Z,4.0514
2024-03-26T02:03:09.318Z,4.0738
2024-03-26T02:04:12.102Z,4.1548
2024-03-26T02:05:14.822Z,4.3432
2024-03-26T02:06:17.533Z,4.3443
2024-03-26T02:07:20.219Z,4.1866
2024-03-26T02:08:22.988Z,3.9218
2024-03-26T02:09:25.699Z,3.9568
2024-03-26T02:10:28.410Z,4.0893
2024-03-26T02:11:31.143Z,3.9330
2024-03-26T02:12:33.873Z,3.7986
2024-03-26T02:13:36.607Z,3.9832
2024-03-26T02:14:39.346Z,3.9556
2024-03-26T02:15:42.078Z,4.0166
2024-03-26T02:16:44.802Z,3.9264
2024-03-26T02:17:47.566Z,4.0436
2024-03-26T02:18:50.224Z,4.0562
2024-03-26T02:19:52.960Z,4.0996
2024-03-26T02:20:55.732Z,4.2906
2024-03-26T02:21:58.478Z,4.1468
2024-03-26T02:23:01.188Z,4.1415
2024-03-26T02:24:04.134Z,4.0562
2024-03-26T02:25:06.820Z,4.1134
2024-03-26T02:26:09.558Z,4.0747
2024-03-26T02:27:12.255Z,4.2263
2024-03-26T02:28:14.970Z,4.1697
2024-03-26T02:29:17.742Z,4.1639
2024-03-26T02:30:20.427Z,4.0517
2024-03-26T02:31:23.138Z,4.0281
2024-03-26T02:32:25.962Z,3.9600
2024-03-26T02:33:28.655Z,4.1131
2024-03-26T02:34:31.405Z,4.1780
2024-03-26T02:35:34.131Z,4.2284
2024-03-26T02:36:36.854Z,4.2194
2024-03-26T02:37:39.581Z,4.1858
2024-03-26T02:38:42.358Z,4.1075
2024-03-26T02:39:45.160Z,4.2986
2024-03-26T02:40:47.939Z,4.2751
2024-03-26T02:41:50.717Z,4.2852
2024-03-26T02:42:53.448Z,4.2760
2024-03-26T02:43:56.228Z,4.2557
2024-03-26T02:44:58.963Z,4.1913
2024-03-26T02:46:01.852Z,4.2422
2024-03-26T02:47:04.586Z,4.2404
2024-03-26T02:48:07.324Z,4.2021
2024-03-26T02:49:10.011Z,4.2053
2024-03-26T02:50:12.742Z,4.0876
2024-03-26T02:51:15.458Z,4.1246
2024-03-26T02:52:18.173Z,4.1232
2024-03-26T02:53:20.958Z,4.1060
2024-03-26T02:54:23.675Z,4.1151
2024-03-26T02:55:26.569Z,4.1950
2024-03-26T02:56:29.372Z,4.3471
2024-03-26T02:57:32.113Z,4.2453
2024-03-26T02:58:34.850Z,4.1600
2024-03-26T02:59:37.668Z,4.0747
2024-03-26T03:00:40.556Z,4.0430
2024-03-26T03:01:43.297Z,3.9373
2024-03-26T03:02:47.255Z,3.8927
2024-03-26T03:03:47.137Z,3.9536
2024-03-26T03:04:49.977Z,3.9010
2024-03-26T03:05:52.719Z,4.0105
2024-03-26T03:06:55.425Z,4.2070
2024-03-26T03:07:58.154Z,4.2293
2024-03-26T03:09:00.937Z,4.2139
2024-03-26T03:10:03.751Z,4.1888
2024-03-26T03:11:06.482Z,4.1484
2024-03-26T03:12:09.217Z,4.0688
2024-03-26T03:13:11.996Z,4.0823
2024-03-26T03:14:14.777Z,4.1517
2024-03-26T03:15:17.515Z,4.0547
2024-03-26T03:16:20.244Z,4.1478
2024-03-26T03:17:23.041Z,4.1657
2024-03-26T03:18:25.854Z,4.1517
2024-03-26T03:19:28.578Z,4.2244
2024-03-26T03:20:31.321Z,4.1775
2024-03-26T03:21:34.068Z,4.0584
2024-03-26T03:22:36.840Z,4.0824
2024-03-26T03:23:39.773Z,4.2566
2024-03-26T03:24:42.497Z,4.2508
2024-03-26T03:25:45.262Z,4.2176
2024-03-26T03:26:48.011Z,4.3152
2024-03-26T03:27:50.724Z,4.2363
2024-03-26T03:28:53.437Z,4.1428
2024-03-26T03:29:56.177Z,4.1312
2024-03-26T03:30:58.968Z,4.1664
2024-03-26T03:32:01.696Z,4.1462
2024-03-26T03:33:04.580Z,4.0560
2024-03-26T03:34:07.285Z,4.0443
2024-03-26T03:35:10.040Z,4.0082
2024-03-26T03:36:12.722Z,4.0927
2024-03-26T03:37:15.464Z,4.0849
2024-03-26T03:38:18.165Z,4.1435
2024-03-26T03:39:20.899Z,4.1946
2024-03-26T03:40:23.603Z,4.2139
2024-03-26T03:41:26.340Z,4.3331
2024-03-26T03:42:29.045Z,4.4359
2024-03-26T03:43:31.778Z,4.4275
2024-03-26T03:44:34.495Z,4.4119
2024-03-26T03:45:37.479Z,4.4551
2024-03-26T03:46:40.245Z,4.3871
2024-03-26T03:47:42.988Z,4.3176
2024-03-26T03:48:45.680Z,4.3824
2024-03-26T03:49:48.393Z,4.4575
2024-03-26T03:50:51.242Z,4.4302
2024-03-26T03:51:53.962Z,4.3735
2024-03-26T03:52:56.692Z,4.3937
2024-03-26T03:53:59.420Z,4.4576
2024-03-26T03:55:02.338Z,4.5082
2024-03-26T03:56:05.057Z,4.4741
2024-03-26T03:57:07.785Z,4.3609
2024-03-26T03:58:10.831Z,4.2652
2024-03-26T03:59:13.531Z,4.2148
2024-03-26T04:00:16.272Z,4.1959
2024-03-26T04:01:18.968Z,4.1501
2024-03-26T04:02:21.693Z,4.1906
2024-03-26T04:03:24.460Z,4.1833
2024-03-26T04:04:27.228Z,4.2695
2024-03-26T04:05:29.955Z,4.1820
2024-03-26T04:06:32.731Z,4.3410
2024-03-26T04:07:35.620Z,4.3085
2024-03-26T04:08:38.336Z,4.3575
2024-03-26T04:09:41.048Z,4.3185
2024-03-26T04:10:43.767Z,4.2891
2024-03-26T04:11:46.485Z,4.2557
2024-03-26T04:12:49.299Z,4.1968
2024-03-26T04:13:52.014Z,4.1713
2024-03-26T04:14:54.749Z,4.1235
2024-03-26T04:15:57.696Z,4.2944
2024-03-26T04:17:00.426Z,4.3311
2024-03-26T04:18:03.207Z,4.3588
2024-03-26T04:19:05.977Z,4.3730
2024-03-26T04:20:08.717Z,4.3879
2024-03-26T04:21:11.402Z,4.3627
2024-03-26T04:22:14.140Z,4.2917
2024-03-26T04:23:16.912Z,4.2527
2024-03-26T04:24:19.776Z,4.1867
2024-03-26T04:25:22.593Z,4.1206
2024-03-26T04:26:25.322Z,4.0630
2024-03-26T04:27:28.060Z,4.0391
2024-03-26T04:28:30.808Z,3.8976
2024-03-26T04:29:33.548Z,3.8173
2024-03-26T04:30:36.395Z,3.7731
2024-03-26T04:31:39.142Z,3.8385
2024-03-26T04:32:41.860Z,4.0528
2024-03-26T04:33:44.591Z,4.0882
2024-03-26T04:34:47.271Z,4.0630
2024-03-26T04:35:50.038Z,4.0584
2024-03-26T04:36:52.723Z,4.0700
2024-03-26T04:37:55.457Z,3.9262
2024-03-26T04:38:58.484Z,3.7313
2024-03-26T04:40:01.253Z,3.7770
2024-03-26T04:41:04.007Z,3.8356
2024-03-26T04:42:06.748Z,3.8572
2024-03-26T04:43:09.455Z,3.8112
2024-03-26T04:44:12.207Z,3.8421
2024-03-26T04:45:14.944Z,3.7701
2024-03-26T04:46:17.667Z,3.8142
2024-03-26T04:47:20.605Z,3.8523
2024-03-26T04:48:23.379Z,3.8958
2024-03-26T04:49:26.086Z,3.8725
2024-03-26T04:50:28.887Z,3.7676
2024-03-26T04:51:31.774Z,3.6405
2024-03-26T04:52:34.520Z,3.6753
2024-03-26T04:53:37.342Z,3.6896
2024-03-26T04:54:40.251Z,3.6773
2024-03-26T04:55:42.964Z,3.6676
2024-03-26T04:56:45.684Z,3.6003
2024-03-26T04:57:48.412Z,3.5785
2024-03-26T04:58:51.151Z,3.5009
2024-03-26T04:59:53.860Z,3.4316
2024-03-26T05:00:56.577Z,3.4415
2024-03-26T05:01:59.376Z,3.8341
2024-03-26T05:03:02.135Z,3.8382
2024-03-26T05:04:04.876Z,3.7607
2024-03-26T05:05:07.618Z,3.6819
2024-03-26T05:06:10.430Z,3.5543
2024-03-26T05:07:13.154Z,3.5997
2024-03-26T05:08:15.946Z,3.5865
2024-03-26T05:09:18.649Z,3.6062
2024-03-26T05:10:21.397Z,3.4576
2024-03-26T05:11:24.154Z,3.4194
2024-03-26T05:12:27.220Z,3.3984
2024-03-26T05:13:29.925Z,3.4580
2024-03-26T05:14:32.890Z,3.4936
2024-03-26T05:15:35.612Z,3.5034
2024-03-26T05:16:38.379Z,3.5805
2024-03-26T05:17:41.118Z,3.5902
2024-03-26T05:18:43.852Z,3.5114
2024-03-26T05:19:46.584Z,3.5089
2024-03-26T05:20:49.348Z,3.5797
2024-03-26T05:21:52.196Z,3.6997
2024-03-26T05:22:55.009Z,3.6693
2024-03-26T05:23:57.755Z,3.6877
2024-03-26T05:25:00.503Z,3.6162
2024-03-26T05:26:03.456Z,3.6943
2024-03-26T05:27:06.239Z,3.6795
2024-03-26T05:28:08.967Z,3.5843
2024-03-26T05:29:11.776Z,3.4509
2024-03-26T05:30:14.478Z,3.6151
2024-03-26T05:31:17.159Z,3.7587
2024-03-26T05:32:19.845Z,3.7472
2024-03-26T05:33:22.556Z,3.7107
2024-03-26T05:34:25.344Z,3.7291
2024-03-26T05:35:28.271Z,3.6365
2024-03-26T05:36:30.971Z,3.5257
2024-03-26T05:37:33.669Z,3.4217
2024-03-26T05:38:36.442Z,3.6325
2024-03-26T05:39:39.085Z,3.7132
2024-03-26T05:40:41.860Z,3.7055
2024-03-26T05:41:44.536Z,3.6378
2024-03-26T05:42:47.291Z,3.5847
2024-03-26T05:43:50.028Z,3.4574
2024-03-26T05:44:52.793Z,3.5068
2024-03-26T05:45:55.436Z,3.4933
2024-03-26T05:46:58.177Z,3.4647
2024-03-26T05:48:00.900Z,3.5326
2024-03-26T05:49:03.622Z,3.6718
2024-03-26T05:50:06.303Z,3.7021
2024-03-26T05:51:09.037Z,3.7765
2024-03-26T05:52:11.778Z,3.7739
2024-03-26T05:53:14.500Z,3.7501
2024-03-26T05:54:17.186Z,3.8055
2024-03-26T05:55:19.937Z,3.7857
2024-03-26T05:56:22.993Z,3.9071
2024-03-26T05:57:25.694Z,3.8400
2024-03-26T05:58:28.422Z,3.9290
2024-03-26T05:59:31.124Z,3.9482
2024-03-26T06:00:33.891Z,3.8922
2024-03-26T06:01:36.587Z,3.8609
2024-03-26T06:02:39.359Z,3.9051
2024-03-26T06:03:42.054Z,3.8989
2024-03-26T06:04:44.739Z,3.9044
2024-03-26T06:05:47.570Z,3.9311
2024-03-26T06:06:50.254Z,3.9124
2024-03-26T06:07:52.916Z,3.9663
2024-03-26T06:08:55.690Z,3.9826
2024-03-26T06:09:58.347Z,3.9608
2024-03-26T06:11:01.058Z,3.9664
2024-03-26T06:12:03.741Z,3.9826
2024-03-26T06:13:07.785Z,3.9046
2024-03-26T06:14:07.084Z,3.9617
2024-03-26T06:15:09.786Z,3.9305
2024-03-26T06:16:12.474Z,3.9443
2024-03-26T06:17:15.146Z,4.0523
2024-03-26T06:18:17.809Z,4.1563
2024-03-26T06:19:20.585Z,4.2380
2024-03-26T06:20:23.250Z,4.2831
2024-03-26T06:21:25.997Z,4.2900
2024-03-26T06:22:28.762Z,4.3598
2024-03-26T06:23:31.528Z,4.4063
2024-03-26T06:24:34.173Z,4.4910
2024-03-26T06:25:36.869Z,4.4834
2024-03-26T06:26:39.613Z,4.5460
2024-03-26T06:27:42.288Z,4.5119
2024-03-26T06:28:45.056Z,4.5040
2024-03-26T06:29:47.782Z,4.5895
2024-03-26T06:30:50.491Z,4.5772
2024-03-26T06:31:53.234Z,4.6926
2024-03-26T06:32:55.987Z,4.8064
2024-03-26T06:33:58.678Z,4.8884
2024-03-26T06:35:01.373Z,4.7266
2024-03-26T06:36:04.100Z,4.8359
2024-03-26T06:37:06.805Z,4.8329
2024-03-26T06:38:09.880Z,4.9601
2024-03-26T06:39:12.625Z,4.7249
2024-03-26T06:40:15.319Z,4.8380
2024-03-26T06:41:17.996Z,4.8697
2024-03-26T06:42:20.746Z,4.8484
2024-03-26T06:43:23.459Z,4.9408
2024-03-26T06:44:26.231Z,4.9616
2024-03-26T06:45:29.223Z,5.0736
2024-03-26T06:46:31.918Z,5.1529
2024-03-26T06:47:34.650Z,5.1589
2024-03-26T06:48:37.387Z,5.2396
2024-03-26T06:49:40.147Z,5.2827
2024-03-26T06:50:42.836Z,5.4863
2024-03-26T06:51:46.135Z,5.5259
2024-03-26T06:52:48.926Z,5.5993
2024-03-26T06:53:51.608Z,5.4665
2024-03-26T06:54:54.352Z,5.4394
2024-03-26T06:55:57.076Z,5.5800
2024-03-26T06:56:59.780Z,5.7337
2024-03-26T06:58:02.558Z,5.6109
2024-03-26T06:59:05.212Z,5.7621
2024-03-26T07:00:07.922Z,5.8469
2024-03-26T07:01:10.591Z,5.8097
2024-03-26T07:02:13.390Z,5.8720
2024-03-26T07:03:16.142Z,5.7793
2024-03-26T07:04:18.817Z,5.8923
2024-03-26T07:05:21.536Z,5.9162
2024-03-26T07:06:24.256Z,5.8448
2024-03-26T07:07:26.993Z,5.8922
2024-03-26T07:08:29.687Z,5.9457
2024-03-26T07:09:32.362Z,5.9736
2024-03-26T07:10:35.134Z,6.0508
2024-03-26T07:11:37.868Z,6.0555
2024-03-26T07:12:40.557Z,5.9696
2024-03-26T07:13:43.232Z,5.7935
2024-03-26T07:14:46.036Z,5.9732
2024-03-26T07:15:48.820Z,5.8487
2024-03-26T07:16:51.478Z,5.7521
2024-03-26T07:17:54.209Z,5.8609
2024-03-26T07:18:56.873Z,5.7922
2024-03-26T07:19:59.631Z,5.8036
2024-03-26T07:21:02.340Z,5.7794
2024-03-26T07:22:05.115Z,5.7082
2024-03-26T07:23:07.754Z,5.7690
2024-03-26T07:24:10.503Z,5.8127
2024-03-26T07:25:13.241Z,5.6929
2024-03-26T07:26:15.960Z,5.7778
2024-03-26T07:27:18.663Z,5.8577
2024-03-26T07:28:21.374Z,5.9063
2024-03-26T07:29:24.099Z,6.0423
2024-03-26T07:30:26.844Z,6.0476
2024-03-26T07:31:29.511Z,6.0229
2024-03-26T07:32:32.223Z,6.1576
2024-03-26T07:33:34.985Z,6.3430
2024-03-26T07:34:37.723Z,6.1582
2024-03-26T07:35:40.443Z,6.2418
2024-03-26T07:36:43.162Z,6.4577
2024-03-26T07:37:45.859Z,6.5887
2024-03-26T07:38:48.591Z,6.7737
2024-03-26T07:39:51.277Z,6.6396
2024-03-26T07:40:53.998Z,6.9493
2024-03-26T07:41:56.743Z,7.1401
2024-03-26T07:43:01.417Z,7.1621
2024-03-26T07:43:59.419Z,7.1675
2024-03-26T07:45:02.536Z,7.4070
2024-03-26T07:46:05.208Z,7.7607
2024-03-26T07:47:08.098Z,7.6733
2024-03-26T07:48:10.857Z,7.8037
2024-03-26T07:49:13.561Z,7.7979
2024-03-26T07:50:16.302Z,7.9319
2024-03-26T07:51:19.646Z,7.9559
2024-03-26T07:52:19.545Z,7.8050
2024-03-26T07:53:22.333Z,7.9747
2024-03-26T07:54:24.947Z,8.2110
2024-03-26T07:55:27.688Z,8.2639
2024-03-26T07:56:30.389Z,8.1467
2024-03-26T07:57:33.115Z,8.5394
2024-03-26T07:58:35.786Z,8.7402
2024-03-26T07:59:38.533Z,8.6611
2024-03-26T08:00:41.323Z,8.7328
2024-03-26T08:01:44.263Z,8.7284
2024-03-26T08:02:46.948Z,8.4635
2024-03-26T08:03:49.712Z,8.3782
2024-03-26T08:04:52.414Z,8.8377
2024-03-26T08:05:55.220Z,8.6864
2024-03-26T08:06:57.941Z,8.7905
2024-03-26T08:08:00.878Z,8.8660
2024-03-26T08:09:03.612Z,8.5094
2024-03-26T08:10:06.399Z,8.5109
2024-03-26T08:11:09.381Z,8.8478
2024-03-26T08:12:12.050Z,8.6672
2024-03-26T08:13:14.823Z,8.8961
2024-03-26T08:14:17.581Z,8.8826
2024-03-26T08:15:20.303Z,9.1385
2024-03-26T08:16:23.032Z,9.4869
2024-03-26T08:17:25.735Z,9.3780
2024-03-26T08:18:28.493Z,9.3688
2024-03-26T08:19:31.630Z,9.5837
2024-03-26T08:20:31.383Z,9.5935
2024-03-26T08:21:34.079Z,9.8330
2024-03-26T08:22:36.761Z,9.8604
2024-03-26T08:23:39.480Z,9.6053
2024-03-26T08:24:42.240Z,9.6655
2024-03-26T08:25:44.940Z,10.0327
2024-03-26T08:26:47.636Z,9.9813
2024-03-26T08:27:50.341Z,10.4952
2024-03-26T08:28:53.069Z,10.2553
2024-03-26T08:29:55.777Z,10.3188
2024-03-26T08:30:58.519Z,10.6250
2024-03-26T08:32:01.218Z,10.6778
2024-03-26T08:33:04.408Z,10.5086
2024-03-26T08:34:07.142Z,10.8980
2024-03-26T08:35:09.859Z,11.0572
2024-03-26T08:36:13.017Z,10.9891
2024-03-26T08:37:12.670Z,11.0970
2024-03-26T08:38:15.355Z,10.4737
2024-03-26T08:39:18.055Z,10.4609
2024-03-26T08:40:20.941Z,10.6138
2024-03-26T08:41:23.793Z,10.3957
2024-03-26T08:42:26.519Z,10.6986
2024-03-26T08:43:29.285Z,10.4291
2024-03-26T08:44:32.351Z,10.2417
2024-03-26T08:45:35.019Z,10.1991
2024-03-26T08:46:37.706Z,10.5544
2024-03-26T08:47:40.428Z,10.1849
2024-03-26T08:48:43.152Z,10.1275
2024-03-26T08:49:45.860Z,10.1743
2024-03-26T08:50:48.606Z,10.1187
2024-03-26T08:51:52.202Z,10.0128
2024-03-26T08:52:51.571Z,9.9131
2024-03-26T08:53:54.279Z,10.2144
2024-03-26T08:54:56.979Z,10.2494
2024-03-26T08:56:08.565Z,10.2177
2024-03-26T08:57:01.407Z,10.2519
2024-03-26T08:58:04.058Z,10.5500
2024-03-26T08:59:06.806Z,10.5712
2024-03-26T09:00:09.557Z,10.3108
2024-03-26T09:01:12.279Z,10.8536
2024-03-26T09:02:14.992Z,10.8612
2024-03-26T09:03:17.772Z,10.8112
2024-03-26T09:04:21.934Z,11.0965
2024-03-26T09:05:22.608Z,10.9677
2024-03-26T09:06:25.299Z,11.1091
2024-03-26T09:07:28.206Z,11.3413
2024-03-26T09:08:31.000Z,11.2152
2024-03-26T09:09:33.696Z,10.9883
2024-03-26T09:10:36.431Z,11.5174
2024-03-26T09:11:39.146Z,11.8547
2024-03-26T09:12:41.865Z,11.9152
2024-03-26T09:13:45.019Z,12.1125
2024-03-26T09:14:47.692Z,11.4736
2024-03-26T09:15:50.482Z,12.0448
2024-03-26T09:16:53.192Z,12.0173
2024-03-26T09:17:55.922Z,12.4744
2024-03-26T09:19:01.701Z,13.0271
2024-03-26T09:20:01.641Z,12.4542
2024-03-26T09:21:04.366Z,11.9912
2024-03-26T09:22:07.316Z,12.6074
2024-03-26T09:23:10.026Z,12.1338
2024-03-26T09:24:12.719Z,12.0050
2024-03-26T09:25:15.460Z,11.7047
2024-03-26T09:26:18.195Z,12.1085
2024-03-26T09:27:20.922Z,12.2222
2024-03-26T09:28:23.692Z,12.5646
2024-03-26T09:29:26.365Z,12.9485
2024-03-26T09:30:29.377Z,13.3158
2024-03-26T09:31:32.141Z,13.1249
2024-03-26T09:32:34.830Z,13.4056
2024-03-26T09:33:37.597Z,12.4239
2024-03-26T09:34:40.332Z,12.3529
2024-03-26T09:35:43.308Z,12.8632
2024-03-26T09:36:46.158Z,13.4694
2024-03-26T09:37:49.941Z,13.8542
2024-03-26T09:38:51.048Z,13.3555
2024-03-26T09:39:51.748Z,12.4626
2024-03-26T09:40:54.555Z,13.0389
2024-03-26T09:41:57.439Z,12.2480
2024-03-26T09:43:00.167Z,13.3210
2024-03-26T09:44:03.050Z,13.1455
2024-03-26T09:45:06.857Z,12.0627
2024-03-26T09:46:06.659Z,12.2038
2024-03-26T09:47:09.377Z,11.4843
2024-03-26T09:48:12.096Z,11.5323
2024-03-26T09:49:14.830Z,11.6423
2024-03-26T09:50:17.628Z,12.0093
2024-03-26T09:51:20.571Z,12.3033
2024-03-26T09:52:23.331Z,12.2065
2024-03-26T09:53:26.068Z,12.7862
2024-03-26T09:54:28.996Z,12.4684
2024-03-26T09:55:31.805Z,13.2283
2024-03-26T09:56:34.528Z,12.3830
2024-03-26T09:57:37.274Z,12.8969
2024-03-26T09:58:40.289Z,12.4994
2024-03-26T09:59:43.093Z,12.9671
2024-03-26T10:00:45.834Z,13.3169
2024-03-26T10:01:48.548Z,12.8248
2024-03-26T10:02:51.454Z,13.0153
2024-03-26T10:03:54.509Z,12.7521
2024-03-26T10:04:57.244Z,13.0702
2024-03-26T10:06:00.097Z,12.4425
2024-03-26T10:07:02.982Z,12.0160
2024-03-26T10:08:05.715Z,11.6436
2024-03-26T10:09:08.735Z,11.7848
2024-03-26T10:10:11.488Z,12.1290
2024-03-26T10:11:14.273Z,11.6748
2024-03-26T10:12:17.243Z,11.8494
2024-03-26T10:13:20.003Z,12.3517
2024-03-26T10:14:22.771Z,12.8200
2024-03-26T10:15:25.700Z,12.6960
2024-03-26T10:16:28.426Z,12.8485
2024-03-26T10:17:33.250Z,12.8355
2024-03-26T10:18:32.854Z,13.0977
2024-03-26T10:19:35.608Z,12.5615
2024-03-26T10:20:38.412Z,12.1554
2024-03-26T10:21:41.373Z,12.4926
2024-03-26T10:22:44.108Z,12.5061
2024-03-26T10:23:46.901Z,12.9360
2024-03-26T10:24:49.858Z,12.9092
2024-03-26T10:25:52.572Z,13.0319
2024-03-26T10:26:55.381Z,13.5278
2024-03-26T10:27:58.097Z,12.9006
2024-03-26T10:29:01.082Z,12.8030
2024-03-26T10:30:03.886Z,12.8678
2024-03-26T10:31:06.653Z,11.8965
2024-03-26T10:32:09.629Z,11.4801
2024-03-26T10:33:12.560Z,11.7129
2024-03-26T10:34:15.245Z,11.8793
2024-03-26T10:35:18.021Z,12.2321
2024-03-26T10:36:20.815Z,12.3674
2024-03-26T10:37:23.548Z,12.5699
2024-03-26T10:38:26.487Z,12.3996
2024-03-26T10:39:29.285Z,11.8767
2024-03-26T10:40:32.021Z,11.9485
2024-03-26T10:41:34.935Z,12.8282
2024-03-26T10:42:37.968Z,12.2756
2024-03-26T10:43:40.695Z,12.5147
2024-03-26T10:44:43.704Z,12.2508
2024-03-26T10:45:59.960Z,12.2653
2024-03-26T10:46:49.399Z,12.3807
2024-03-26T10:47:48.938Z,12.0305
2024-03-26T10:48:57.495Z,12.1722
2024-03-26T10:49:53.414Z,12.1342
2024-03-26T10:50:56.625Z,12.3168
2024-03-26T10:51:59.377Z,12.0167
2024-03-26T10:53:02.296Z,11.5727
2024-03-26T10:54:05.103Z,11.9412
2024-03-26T10:55:07.830Z,12.1246
2024-03-26T10:56:10.714Z,12.0390
2024-03-26T10:57:13.478Z,12.2691
2024-03-26T10:58:16.201Z,12.3590
2024-03-26T10:59:18.979Z,12.5962
2024-03-26T11:00:21.946Z,12.7235
2024-03-26T11:01:24.666Z,12.7877
2024-03-26T11:02:27.396Z,12.6856
2024-03-26T11:03:30.106Z,13.2508
2024-03-26T11:04:32.831Z,13.9974
2024-03-26T11:05:35.861Z,14.4848
2024-03-26T11:06:38.606Z,14.9343
2024-03-26T11:07:41.577Z,14.9968
2024-03-26T11:08:44.360Z,15.2724
2024-03-26T11:09:47.115Z,15.5249
2024-03-26T11:10:52.500Z,15.1904
2024-03-26T11:11:52.099Z,15.1215
2024-03-26T11:12:54.890Z,16.4598
2024-03-26T11:13:57.639Z,16.7506
2024-03-26T11:15:00.454Z,16.7080
2024-03-26T11:16:03.799Z,16.6307
2024-03-26T11:17:04.044Z,17.7314
2024-03-26T11:18:06.936Z,17.2684
2024-03-26T11:19:09.727Z,17.7846
2024-03-26T11:20:12.668Z,18.2432
2024-03-26T11:21:15.396Z,17.3519
2024-03-26T11:22:18.459Z,17.2952
2024-03-26T11:23:21.258Z,17.3681
2024-03-26T11:24:23.998Z,16.8746
2024-03-26T11:25:26.788Z,16.8555
2024-03-26T11:26:29.657Z,17.3934
2024-03-26T11:27:32.676Z,18.2048
2024-03-26T11:28:35.391Z,17.7360
2024-03-26T11:29:38.302Z,16.8390
2024-03-26T11:30:41.157Z,18.5061
2024-03-26T11:31:43.956Z,18.5580
2024-03-26T11:32:46.707Z,17.8420
2024-03-26T11:33:49.631Z,18.9621
2024-03-26T11:34:52.459Z,17.0307
2024-03-26T11:35:55.202Z,17.9855
2024-03-26T11:36:58.108Z,17.7633
2024-03-26T11:38:03.485Z,18.9035
2024-03-26T11:39:03.087Z,19.4666
2024-03-26T11:40:06.024Z,20.0848
2024-03-26T11:41:08.984Z,20.4069
2024-03-26T11:42:11.867Z,19.6504
2024-03-26T11:43:14.762Z,20.5404
2024-03-26T11:44:17.554Z,19.9062
2024-03-26T11:45:20.518Z,18.7949
2024-03-26T11:46:23.267Z,21.0757
2024-03-26T11:47:26.101Z,19.1322
2024-03-26T11:48:28.844Z,18.5523
2024-03-26T11:49:31.762Z,18.4047
2024-03-26T11:50:34.536Z,17.2958
2024-03-26T11:51:37.869Z,17.9598
2024-03-26T11:52:38.301Z,18.8022
2024-03-26T11:53:41.310Z,17.3146
2024-03-26T11:54:44.118Z,16.9653
2024-03-26T11:55:47.085Z,17.8578
2024-03-26T11:56:49.848Z,17.7621
2024-03-26T11:57:52.625Z,17.8628
2024-03-26T11:58:55.578Z,19.1530
2024-03-26T11:59:58.326Z,19.2306
2024-03-26T12:01:01.099Z,18.9096
2024-03-26T12:02:03.839Z,17.2744
2024-03-26T12:03:06.796Z,16.8261
2024-03-26T12:04:09.524Z,17.9443
2024-03-26T12:05:12.527Z,18.0024
2024-03-26T12:06:15.245Z,17.1035
2024-03-26T12:07:17.996Z,18.6121
2024-03-26T12:08:20.749Z,19.2512
2024-03-26T12:09:23.545Z,19.1719
2024-03-26T12:10:26.317Z,18.8237
2024-03-26T12:11:29.191Z,18.5167
2024-03-26T12:12:31.879Z,18.0659
2024-03-26T12:13:34.607Z,19.2512
2024-03-26T12:14:37.345Z,19.2397
2024-03-26T12:15:40.374Z,19.7439
2024-03-26T12:16:43.331Z,20.0354
2024-03-26T12:17:46.230Z,19.6542
2024-03-26T12:18:48.969Z,19.3361
2024-03-26T12:19:51.882Z,18.8750
2024-03-26T12:20:54.946Z,18.9664
2024-03-26T12:21:57.693Z,18.6624
2024-03-26T12:23:00.492Z,19.2505
2024-03-26T12:24:03.272Z,19.6593
2024-03-26T12:25:06.166Z,19.8690
2024-03-26T12:26:08.910Z,18.5991
2024-03-26T12:27:11.844Z,17.6648
2024-03-26T12:28:14.649Z,19.0521
2024-03-26T12:29:17.399Z,19.5453
2024-03-26T12:30:20.404Z,19.4338
2024-03-26T12:31:23.325Z,19.5733
2024-03-26T12:32:26.124Z,19.1624
2024-03-26T12:33:28.949Z,20.4094
2024-03-26T12:34:31.871Z,21.2626
2024-03-26T12:35:34.624Z,21.2853
2024-03-26T12:36:37.460Z,21.3247
2024-03-26T12:37:40.390Z,20.5106
2024-03-26T12:38:43.128Z,20.6747
2024-03-26T12:39:46.109Z,20.6908
2024-03-26T12:40:48.949Z,20.0927
2024-03-26T12:41:51.696Z,19.5423
2024-03-26T12:42:54.611Z,19.2980
2024-03-26T12:43:57.330Z,19.9050
2024-03-26T12:45:00.167Z,20.1987
2024-03-26T12:46:02.974Z,19.3085
2024-03-26T12:47:05.825Z,18.2432
2024-03-26T12:48:08.649Z,18.1557
2024-03-26T12:49:11.568Z,18.0330
2024-03-26T12:50:14.392Z,18.4101
2024-03-26T12:51:17.145Z,19.3251
2024-03-26T12:52:20.041Z,20.6652
2024-03-26T12:53:22.766Z,20.7419
2024-03-26T12:54:25.816Z,20.6732